Morat-Fribourg, une classique moderne ! Morat-Fribourg, la classique moderne ! Morat-Fribourg, la classique moderne ! Bienvenue à la Migros
FR  DE
RangEquipe / Nom PrénomTempsCat.RangGénéral  
1. LAT Sense Ladies 7:58'31",2   
  Heimlicher Teres 1:10'24",8W20914
  Isaak-Mauron Evelyne 1:13'27",6W40326
  Zumwald Judith 1:14'03",9W40631
  Kaymaz Zibung Irene 1:16'32",9W202546
  Zbinden Marianne 1:28'58",1W3556307
  Marro Patricia 1:35'03",9W20249635
2. Footing Club Lausanne Femmes 1 8:00'09",3   
  Moinat Aurélie 1:12'38",0W35722
  Juilland Florence 1:18'39",9W351565
  Bolzoni Gabriela 1:19'13",4W50472
  Brugnoni Lara 1:19'26",6W203577
  Lameira Vanessa 1:20'13",6W203991
  Berguerand Linda 1:29'57",8W4534342
3. CAG Farvagny 8:15'25",9   
  Marmy Delphine 1:16'36",5W202648
  Schouwey Karine 1:17'27",1W351152
  Chofflon Salomé 1:24'36",2CadF4176
  Stempfel Carmen 1:24'48",4W3535186
  Brodard Monique 1:25'17",6W603196
  Monney Véronique 1:26'40",1W4038222
4. Trilogie Running Team 3 8:17'54",7   
  Schultheiss Karen 1:11'38",5W201016
  Schumacher Virginie 1:12'33",7W35621
  Romanens Christelle 1:14'24",6W35934
  Monney Myriam 1:31'41",2W4546424
  Chassot Joelle 1:32'56",5W3584505
  Vonlanthen Angéle 1:34'40",2W20238607
5. TSV Rechthalten 8:20'50",2   
  Zahno Regula 1:10'29",6W45115
  Reidy Isabelle 1:21'03",5W3524103
  Jelk Antoinette 1:22'10",1W456118
  Jungo Stefanie 1:26'23",5W2084215
  Neuhaus-Baechler Brigitte 1:29'21",8W4529319
  Schwaller Sonya 1:31'21",7W4075411
1 2 
 © 2016 Course Morat-Fribourg
Design by Atelier 32, Fribourg - Powered by CISEL Informatique SA, Matran